sensor_id;sensor_type;location;lat;lon;timestamp;temperature;humidity
4934;DHT22;2482;49.154;8.254;2022-07-29T00:00:23;20.10;99.90
4934;DHT22;2482;49.154;8.254;2022-07-29T00:02:51;20.30;99.90
4934;DHT22;2482;49.154;8.254;2022-07-29T00:05:18;20.50;99.90
4934;DHT22;2482;49.154;8.254;2022-07-29T00:07:47;20.50;99.90
4934;DHT22;2482;49.154;8.254;2022-07-29T00:10:16;20.70;99.90
4934;DHT22;2482;49.154;8.254;2022-07-29T00:12:43;20.60;99.90
4934;DHT22;2482;49.154;8.254;2022-07-29T00:15:10;20.40;99.90
4934;DHT22;2482;49.154;8.254;2022-07-29T00:17:41;20.40;99.90
4934;DHT22;2482;49.154;8.254;2022-07-29T00:20:11;20.50;99.90
4934;DHT22;2482;49.154;8.254;2022-07-29T00:22:40;20.60;99.90
4934;DHT22;2482;49.154;8.254;2022-07-29T00:25:11;20.60;99.90
4934;DHT22;2482;49.154;8.254;2022-07-29T00:27:40;20.30;99.90
4934;DHT22;2482;49.154;8.254;2022-07-29T00:30:07;19.90;99.90
4934;DHT22;2482;49.154;8.254;2022-07-29T00:32:35;19.50;99.90
4934;DHT22;2482;49.154;8.254;2022-07-29T00:35:02;19.30;99.90
4934;DHT22;2482;49.154;8.254;2022-07-29T00:37:48;19.10;99.90
4934;DHT22;2482;49.154;8.254;2022-07-29T00:40:15;18.90;99.90
4934;DHT22;2482;49.154;8.254;2022-07-29T00:42:45;18.90;99.90
4934;DHT22;2482;49.154;8.254;2022-07-29T00:45:14;18.80;99.90
4934;DHT22;2482;49.154;8.254;2022-07-29T00:47:42;18.80;99.90
4934;DHT22;2482;49.154;8.254;2022-07-29T00:50:12;18.80;99.90
4934;DHT22;2482;49.154;8.254;2022-07-29T00:52:41;18.80;99.90
4934;DHT22;2482;49.154;8.254;2022-07-29T00:55:11;18.70;99.90
4934;DHT22;2482;49.154;8.254;2022-07-29T00:57:41;18.50;99.90
4934;DHT22;2482;49.154;8.254;2022-07-29T01:00:12;18.40;99.90
4934;DHT22;2482;49.154;8.254;2022-07-29T01:02:41;18.40;99.90
4934;DHT22;2482;49.154;8.254;2022-07-29T01:05:11;18.30;99.90
4934;DHT22;2482;49.154;8.254;2022-07-29T01:07:39;18.20;99.90
4934;DHT22;2482;49.154;8.254;2022-07-29T01:10:08;18.10;99.90
4934;DHT22;2482;49.154;8.254;2022-07-29T01:12:38;18.10;99.90
4934;DHT22;2482;49.154;8.254;2022-07-29T01:15:07;18.10;99.90
4934;DHT22;2482;49.154;8.254;2022-07-29T01:18:11;18.10;99.90
4934;DHT22;2482;49.154;8.254;2022-07-29T01:30:10;18.20;99.90
4934;DHT22;2482;49.154;8.254;2022-07-29T01:32:43;18.10;99.90
4934;DHT22;2482;49.154;8.254;2022-07-29T01:35:22;18.10;99.90
4934;DHT22;2482;49.154;8.254;2022-07-29T01:38:17;18.10;99.90
4934;DHT22;2482;49.154;8.254;2022-07-29T01:43:43;18.10;99.90
4934;DHT22;2482;49.154;8.254;2022-07-29T01:46:49;18.00;99.90
4934;DHT22;2482;49.154;8.254;2022-07-29T01:49:31;18.00;99.90
4934;DHT22;2482;49.154;8.254;2022-07-29T01:52:13;18.00;99.90
4934;DHT22;2482;49.154;8.254;2022-07-29T01:55:01;18.00;99.90
4934;DHT22;2482;49.154;8.254;2022-07-29T01:57:33;18.00;99.90
4934;DHT22;2482;49.154;8.254;2022-07-29T02:00:03;18.10;99.90
4934;DHT22;2482;49.154;8.254;2022-07-29T02:02:31;18.20;99.90
4934;DHT22;2482;49.154;8.254;2022-07-29T02:05:02;18.00;99.90
4934;DHT22;2482;49.154;8.254;2022-07-29T02:07:31;17.90;99.90
4934;DHT22;2482;49.154;8.254;2022-07-29T02:10:01;18.00;99.90
4934;DHT22;2482;49.154;8.254;2022-07-29T02:12:31;17.90;99.90
4934;DHT22;2482;49.154;8.254;2022-07-29T02:15:01;17.90;99.90
4934;DHT22;2482;49.154;8.254;2022-07-29T02:17:38;17.80;99.90
4934;DHT22;2482;49.154;8.254;2022-07-29T02:20:14;17.80;99.90
4934;DHT22;2482;49.154;8.254;2022-07-29T02:22:43;17.60;99.90
4934;DHT22;2482;49.154;8.254;2022-07-29T02:25:12;17.40;99.90
4934;DHT22;2482;49.154;8.254;2022-07-29T02:27:41;17.50;99.90
4934;DHT22;2482;49.154;8.254;2022-07-29T02:30:09;17.60;99.90
4934;DHT22;2482;49.154;8.254;2022-07-29T02:32:40;17.60;99.90
4934;DHT22;2482;49.154;8.254;2022-07-29T02:35:09;17.50;99.90
4934;DHT22;2482;49.154;8.254;2022-07-29T02:37:37;17.40;99.90
4934;DHT22;2482;49.154;8.254;2022-07-29T02:40:07;17.30;99.90
4934;DHT22;2482;49.154;8.254;2022-07-29T02:42:37;17.40;99.90
4934;DHT22;2482;49.154;8.254;2022-07-29T02:45:06;17.20;99.90
4934;DHT22;2482;49.154;8.254;2022-07-29T02:47:54;17.20;99.90
4934;DHT22;2482;49.154;8.254;2022-07-29T02:50:34;17.10;99.90
4934;DHT22;2482;49.154;8.254;2022-07-29T02:53:14;17.20;99.90
4934;DHT22;2482;49.154;8.254;2022-07-29T02:55:50;17.20;99.90
4934;DHT22;2482;49.154;8.254;2022-07-29T02:58:28;17.20;99.90
4934;DHT22;2482;49.154;8.254;2022-07-29T03:01:12;17.30;99.90
4934;DHT22;2482;49.154;8.254;2022-07-29T03:03:49;17.30;99.90
4934;DHT22;2482;49.154;8.254;2022-07-29T03:06:21;17.30;99.90
4934;DHT22;2482;49.154;8.254;2022-07-29T03:09:04;17.30;99.90
4934;DHT22;2482;49.154;8.254;2022-07-29T03:11:41;17.20;99.90
4934;DHT22;2482;49.154;8.254;2022-07-29T03:14:32;17.20;99.90
4934;DHT22;2482;49.154;8.254;2022-07-29T03:17:00;17.10;99.90
4934;DHT22;2482;49.154;8.254;2022-07-29T03:19:27;17.00;99.90
4934;DHT22;2482;49.154;8.254;2022-07-29T03:22:01;16.90;99.90
4934;DHT22;2482;49.154;8.254;2022-07-29T03:24:31;16.80;99.90
4934;DHT22;2482;49.154;8.254;2022-07-29T03:27:04;16.80;99.90
4934;DHT22;2482;49.154;8.254;2022-07-29T03:29:32;16.80;99.90
4934;DHT22;2482;49.154;8.254;2022-07-29T03:32:04;16.70;99.90
4934;DHT22;2482;49.154;8.254;2022-07-29T03:34:35;16.70;99.90
4934;DHT22;2482;49.154;8.254;2022-07-29T03:37:04;16.80;99.90
4934;DHT22;2482;49.154;8.254;2022-07-29T03:39:36;16.60;99.90
4934;DHT22;2482;49.154;8.254;2022-07-29T03:42:07;16.50;99.90
4934;DHT22;2482;49.154;8.254;2022-07-29T03:44:44;16.70;99.90
4934;DHT22;2482;49.154;8.254;2022-07-29T03:47:15;16.60;99.90
4934;DHT22;2482;49.154;8.254;2022-07-29T03:49:50;16.30;99.90
4934;DHT22;2482;49.154;8.254;2022-07-29T03:52:29;16.30;99.90
4934;DHT22;2482;49.154;8.254;2022-07-29T03:55:19;16.40;99.90
4934;DHT22;2482;49.154;8.254;2022-07-29T03:57:46;16.60;99.90
4934;DHT22;2482;49.154;8.254;2022-07-29T04:00:16;16.50;99.90
4934;DHT22;2482;49.154;8.254;2022-07-29T04:02:43;16.50;99.90
4934;DHT22;2482;49.154;8.254;2022-07-29T04:05:16;16.70;99.90
4934;DHT22;2482;49.154;8.254;2022-07-29T04:07:44;16.70;99.90
4934;DHT22;2482;49.154;8.254;2022-07-29T04:10:13;16.60;99.90
4934;DHT22;2482;49.154;8.254;2022-07-29T04:12:42;16.60;99.90
4934;DHT22;2482;49.154;8.254;2022-07-29T04:15:10;16.50;99.90
4934;DHT22;2482;49.154;8.254;2022-07-29T04:17:37;16.60;99.90
4934;DHT22;2482;49.154;8.254;2022-07-29T04:20:06;16.80;99.90
4934;DHT22;2482;49.154;8.254;2022-07-29T04:22:33;16.90;99.90
4934;DHT22;2482;49.154;8.254;2022-07-29T04:25:01;16.90;99.90
4934;DHT22;2482;49.154;8.254;2022-07-29T04:27:30;16.90;99.90
4934;DHT22;2482;49.154;8.254;2022-07-29T04:29:59;16.90;99.90
4934;DHT22;2482;49.154;8.254;2022-07-29T04:32:26;16.90;99.90
4934;DHT22;2482;49.154;8.254;2022-07-29T04:34:54;17.00;99.90
4934;DHT22;2482;49.154;8.254;2022-07-29T04:37:21;17.00;99.90
4934;DHT22;2482;49.154;8.254;2022-07-29T04:39:48;17.10;99.90
4934;DHT22;2482;49.154;8.254;2022-07-29T04:42:15;17.30;99.90
4934;DHT22;2482;49.154;8.254;2022-07-29T04:44:43;17.40;99.90
4934;DHT22;2482;49.154;8.254;2022-07-29T04:47:12;17.50;99.90
4934;DHT22;2482;49.154;8.254;2022-07-29T04:49:39;17.80;99.90
4934;DHT22;2482;49.154;8.254;2022-07-29T04:52:06;18.00;99.90
4934;DHT22;2482;49.154;8.254;2022-07-29T04:54:33;18.10;99.90
4934;DHT22;2482;49.154;8.254;2022-07-29T04:57:00;18.10;99.90
4934;DHT22;2482;49.154;8.254;2022-07-29T04:59:27;18.20;99.90
4934;DHT22;2482;49.154;8.254;2022-07-29T05:01:54;18.50;99.90
4934;DHT22;2482;49.154;8.254;2022-07-29T05:04:21;18.80;99.90
4934;DHT22;2482;49.154;8.254;2022-07-29T05:06:49;18.90;99.90
4934;DHT22;2482;49.154;8.254;2022-07-29T05:09:16;19.20;99.90
4934;DHT22;2482;49.154;8.254;2022-07-29T05:21:41;19.70;99.90
4934;DHT22;2482;49.154;8.254;2022-07-29T05:24:08;19.80;99.90
4934;DHT22;2482;49.154;8.254;2022-07-29T05:26:35;20.00;99.90
4934;DHT22;2482;49.154;8.254;2022-07-29T05:29:02;20.10;99.90
4934;DHT22;2482;49.154;8.254;2022-07-29T05:31:29;20.30;99.90
4934;DHT22;2482;49.154;8.254;2022-07-29T05:34:05;20.40;99.90
4934;DHT22;2482;49.154;8.254;2022-07-29T05:36:34;20.40;99.90
4934;DHT22;2482;49.154;8.254;2022-07-29T05:39:23;20.40;99.90
4934;DHT22;2482;49.154;8.254;2022-07-29T05:42:20;20.50;99.90
4934;DHT22;2482;49.154;8.254;2022-07-29T05:44:47;20.60;99.90
4934;DHT22;2482;49.154;8.254;2022-07-29T05:47:14;20.50;99.90
4934;DHT22;2482;49.154;8.254;2022-07-29T05:49:42;20.50;99.90
4934;DHT22;2482;49.154;8.254;2022-07-29T05:52:25;20.50;99.90
4934;DHT22;2482;49.154;8.254;2022-07-29T05:54:53;20.40;99.90
4934;DHT22;2482;49.154;8.254;2022-07-29T05:57:23;20.40;99.90
4934;DHT22;2482;49.154;8.254;2022-07-29T06:02:42;20.60;99.90
4934;DHT22;2482;49.154;8.254;2022-07-29T06:05:14;20.80;99.90
4934;DHT22;2482;49.154;8.254;2022-07-29T06:07:43;21.20;99.90
4934;DHT22;2482;49.154;8.254;2022-07-29T06:10:16;21.30;99.90
4934;DHT22;2482;49.154;8.254;2022-07-29T06:12:43;21.30;99.90
4934;DHT22;2482;49.154;8.254;2022-07-29T06:15:10;21.40;99.90
4934;DHT22;2482;49.154;8.254;2022-07-29T06:17:37;21.40;99.90
4934;DHT22;2482;49.154;8.254;2022-07-29T06:20:24;21.50;99.90
4934;DHT22;2482;49.154;8.254;2022-07-29T06:22:52;21.70;99.90
4934;DHT22;2482;49.154;8.254;2022-07-29T06:25:20;21.80;99.90
4934;DHT22;2482;49.154;8.254;2022-07-29T06:27:57;22.00;99.90
4934;DHT22;2482;49.154;8.254;2022-07-29T06:30:26;22.00;99.90
4934;DHT22;2482;49.154;8.254;2022-07-29T06:32:55;22.20;99.90
4934;DHT22;2482;49.154;8.254;2022-07-29T06:35:22;22.70;99.90
4934;DHT22;2482;49.154;8.254;2022-07-29T06:38:19;23.00;99.90
4934;DHT22;2482;49.154;8.254;2022-07-29T06:41:00;23.50;99.90
4934;DHT22;2482;49.154;8.254;2022-07-29T06:43:37;23.70;99.90
4934;DHT22;2482;49.154;8.254;2022-07-29T06:46:21;23.60;99.90
4934;DHT22;2482;49.154;8.254;2022-07-29T06:48:49;23.40;99.90
4934;DHT22;2482;49.154;8.254;2022-07-29T06:51:17;23.10;99.90
4934;DHT22;2482;49.154;8.254;2022-07-29T06:53:50;22.90;99.90
4934;DHT22;2482;49.154;8.254;2022-07-29T06:56:53;22.90;99.90
4934;DHT22;2482;49.154;8.254;2022-07-29T06:59:20;23.00;99.90
4934;DHT22;2482;49.154;8.254;2022-07-29T07:05:31;23.00;99.90
4934;DHT22;2482;49.154;8.254;2022-07-29T07:07:58;23.20;99.90
4934;DHT22;2482;49.154;8.254;2022-07-29T07:10:25;23.30;99.90
4934;DHT22;2482;49.154;8.254;2022-07-29T07:12:52;23.30;99.90
4934;DHT22;2482;49.154;8.254;2022-07-29T07:15:19;23.50;99.90
4934;DHT22;2482;49.154;8.254;2022-07-29T07:18:11;23.80;99.90
4934;DHT22;2482;49.154;8.254;2022-07-29T07:20:44;23.90;99.90
4934;DHT22;2482;49.154;8.254;2022-07-29T07:23:12;24.10;99.90
4934;DHT22;2482;49.154;8.254;2022-07-29T07:28:35;24.50;99.90
4934;DHT22;2482;49.154;8.254;2022-07-29T07:31:07;24.50;99.90
4934;DHT22;2482;49.154;8.254;2022-07-29T07:33:43;24.10;99.90
4934;DHT22;2482;49.154;8.254;2022-07-29T07:36:11;24.00;99.90
4934;DHT22;2482;49.154;8.254;2022-07-29T07:38:40;24.20;99.90
4934;DHT22;2482;49.154;8.254;2022-07-29T07:41:07;24.60;99.90
4934;DHT22;2482;49.154;8.254;2022-07-29T07:43:51;24.70;99.90
4934;DHT22;2482;49.154;8.254;2022-07-29T07:46:19;24.90;99.90
4934;DHT22;2482;49.154;8.254;2022-07-29T07:48:47;25.10;99.90
4934;DHT22;2482;49.154;8.254;2022-07-29T07:51:15;25.30;99.90
4934;DHT22;2482;49.154;8.254;2022-07-29T07:53:41;25.60;99.90
4934;DHT22;2482;49.154;8.254;2022-07-29T07:56:11;26.00;99.90
4934;DHT22;2482;49.154;8.254;2022-07-29T07:58:44;26.40;99.90
4934;DHT22;2482;49.154;8.254;2022-07-29T08:01:12;26.20;99.90
4934;DHT22;2482;49.154;8.254;2022-07-29T08:03:40;25.70;99.90
4934;DHT22;2482;49.154;8.254;2022-07-29T08:06:07;25.30;99.90
4934;DHT22;2482;49.154;8.254;2022-07-29T08:08:34;24.90;99.90
4934;DHT22;2482;49.154;8.254;2022-07-29T08:11:02;24.60;99.90
4934;DHT22;2482;49.154;8.254;2022-07-29T08:13:54;24.50;99.90
4934;DHT22;2482;49.154;8.254;2022-07-29T08:16:27;25.20;99.90
4934;DHT22;2482;49.154;8.254;2022-07-29T08:18:57;25.50;99.90
4934;DHT22;2482;49.154;8.254;2022-07-29T08:21:25;25.70;99.90
4934;DHT22;2482;49.154;8.254;2022-07-29T08:24:29;25.60;99.90
4934;DHT22;2482;49.154;8.254;2022-07-29T08:27:22;25.80;99.90
4934;DHT22;2482;49.154;8.254;2022-07-29T08:30:31;25.60;99.90
4934;DHT22;2482;49.154;8.254;2022-07-29T08:33:02;25.80;99.90
4934;DHT22;2482;49.154;8.254;2022-07-29T08:35:31;25.90;99.90
4934;DHT22;2482;49.154;8.254;2022-07-29T08:38:02;25.50;99.90
4934;DHT22;2482;49.154;8.254;2022-07-29T08:40:30;25.50;99.90
4934;DHT22;2482;49.154;8.254;2022-07-29T08:43:18;25.80;99.90
4934;DHT22;2482;49.154;8.254;2022-07-29T08:45:48;26.40;99.90
4934;DHT22;2482;49.154;8.254;2022-07-29T08:48:20;26.50;99.90
4934;DHT22;2482;49.154;8.254;2022-07-29T08:50:54;26.40;99.90
4934;DHT22;2482;49.154;8.254;2022-07-29T08:53:27;25.90;99.90
4934;DHT22;2482;49.154;8.254;2022-07-29T08:56:14;25.50;99.90
4934;DHT22;2482;49.154;8.254;2022-07-29T08:58:50;25.60;99.90
4934;DHT22;2482;49.154;8.254;2022-07-29T09:01:24;25.70;99.90
4934;DHT22;2482;49.154;8.254;2022-07-29T09:04:05;25.80;99.90
4934;DHT22;2482;49.154;8.254;2022-07-29T09:06:42;25.70;99.90
4934;DHT22;2482;49.154;8.254;2022-07-29T09:09:11;25.50;99.90
4934;DHT22;2482;49.154;8.254;2022-07-29T09:11:41;25.50;99.90
4934;DHT22;2482;49.154;8.254;2022-07-29T09:14:11;25.70;99.90
4934;DHT22;2482;49.154;8.254;2022-07-29T09:16:47;26.10;99.90
4934;DHT22;2482;49.154;8.254;2022-07-29T09:21:51;26.90;99.90
4934;DHT22;2482;49.154;8.254;2022-07-29T09:24:45;27.20;99.90
4934;DHT22;2482;49.154;8.254;2022-07-29T09:29:44;28.40;99.90
4934;DHT22;2482;49.154;8.254;2022-07-29T09:32:11;28.70;99.90
4934;DHT22;2482;49.154;8.254;2022-07-29T09:34:38;28.90;99.90
4934;DHT22;2482;49.154;8.254;2022-07-29T09:37:05;28.80;99.90
4934;DHT22;2482;49.154;8.254;2022-07-29T09:39:39;28.80;99.90
4934;DHT22;2482;49.154;8.254;2022-07-29T09:42:13;28.60;99.90
4934;DHT22;2482;49.154;8.254;2022-07-29T09:44:58;28.70;99.90
4934;DHT22;2482;49.154;8.254;2022-07-29T09:47:46;28.90;99.90
4934;DHT22;2482;49.154;8.254;2022-07-29T09:50:16;29.00;99.90
4934;DHT22;2482;49.154;8.254;2022-07-29T09:52:48;29.20;99.90
4934;DHT22;2482;49.154;8.254;2022-07-29T09:55:18;28.90;99.90
4934;DHT22;2482;49.154;8.254;2022-07-29T09:57:46;28.90;99.90
4934;DHT22;2482;49.154;8.254;2022-07-29T10:00:18;28.90;99.90
4934;DHT22;2482;49.154;8.254;2022-07-29T10:02:47;29.00;99.90
4934;DHT22;2482;49.154;8.254;2022-07-29T10:05:26;29.20;99.90
4934;DHT22;2482;49.154;8.254;2022-07-29T10:08:02;29.10;99.90
4934;DHT22;2482;49.154;8.254;2022-07-29T10:10:32;29.00;99.90
4934;DHT22;2482;49.154;8.254;2022-07-29T10:13:12;29.10;99.90
4934;DHT22;2482;49.154;8.254;2022-07-29T10:15:44;29.60;99.90
4934;DHT22;2482;49.154;8.254;2022-07-29T10:18:13;30.20;99.90
4934;DHT22;2482;49.154;8.254;2022-07-29T10:20:47;30.20;99.90
4934;DHT22;2482;49.154;8.254;2022-07-29T10:23:21;29.40;99.90
4934;DHT22;2482;49.154;8.254;2022-07-29T10:25:56;29.50;99.90
4934;DHT22;2482;49.154;8.254;2022-07-29T10:28:25;29.80;99.90
4934;DHT22;2482;49.154;8.254;2022-07-29T10:30:57;29.90;99.90
4934;DHT22;2482;49.154;8.254;2022-07-29T10:34:14;29.80;99.90
4934;DHT22;2482;49.154;8.254;2022-07-29T10:37:03;29.70;99.90
4934;DHT22;2482;49.154;8.254;2022-07-29T10:39:57;29.80;99.90
4934;DHT22;2482;49.154;8.254;2022-07-29T10:42:28;29.70;99.90
4934;DHT22;2482;49.154;8.254;2022-07-29T10:45:03;30.10;99.90
4934;DHT22;2482;49.154;8.254;2022-07-29T10:48:04;30.60;99.90
4934;DHT22;2482;49.154;8.254;2022-07-29T10:51:00;30.90;99.40
4934;DHT22;2482;49.154;8.254;2022-07-29T10:53:51;30.80;99.40
4934;DHT22;2482;49.154;8.254;2022-07-29T10:56:30;30.90;98.60
4934;DHT22;2482;49.154;8.254;2022-07-29T11:05:17;30.80;97.30
4934;DHT22;2482;49.154;8.254;2022-07-29T11:10:50;30.80;98.00
4934;DHT22;2482;49.154;8.254;2022-07-29T11:13:53;30.80;97.10
4934;DHT22;2482;49.154;8.254;2022-07-29T11:16:24;30.70;96.80
4934;DHT22;2482;49.154;8.254;2022-07-29T11:21:47;30.80;97.50
4934;DHT22;2482;49.154;8.254;2022-07-29T11:27:16;30.60;97.20
4934;DHT22;2482;49.154;8.254;2022-07-29T11:29:57;30.70;96.40
4934;DHT22;2482;49.154;8.254;2022-07-29T11:32:43;30.80;97.00
4934;DHT22;2482;49.154;8.254;2022-07-29T11:35:31;30.90;97.70
4934;DHT22;2482;49.154;8.254;2022-07-29T11:38:25;30.40;98.30
4934;DHT22;2482;49.154;8.254;2022-07-29T11:44:03;30.40;96.70
4934;DHT22;2482;49.154;8.254;2022-07-29T11:46:50;30.50;96.50
4934;DHT22;2482;49.154;8.254;2022-07-29T11:49:25;30.20;96.50
4934;DHT22;2482;49.154;8.254;2022-07-29T11:51:58;29.90;96.60
4934;DHT22;2482;49.154;8.254;2022-07-29T11:54:34;30.30;96.20
4934;DHT22;2482;49.154;8.254;2022-07-29T11:57:26;30.60;96.00
4934;DHT22;2482;49.154;8.254;2022-07-29T12:00:05;30.50;95.90
4934;DHT22;2482;49.154;8.254;2022-07-29T12:02:43;30.20;96.10
4934;DHT22;2482;49.154;8.254;2022-07-29T12:05:14;29.70;96.00
4934;DHT22;2482;49.154;8.254;2022-07-29T12:08:15;29.60;95.40
4934;DHT22;2482;49.154;8.254;2022-07-29T12:10:50;29.10;95.10
4934;DHT22;2482;49.154;8.254;2022-07-29T12:13:20;28.90;95.30
4934;DHT22;2482;49.154;8.254;2022-07-29T12:15:56;28.80;94.50
4934;DHT22;2482;49.154;8.254;2022-07-29T12:18:27;29.00;94.00
4934;DHT22;2482;49.154;8.254;2022-07-29T12:21:02;29.10;93.70
4934;DHT22;2482;49.154;8.254;2022-07-29T12:23:35;29.50;93.70
4934;DHT22;2482;49.154;8.254;2022-07-29T12:26:10;29.80;93.70
4934;DHT22;2482;49.154;8.254;2022-07-29T12:28:51;30.10;94.60
4934;DHT22;2482;49.154;8.254;2022-07-29T12:31:20;30.20;92.70
4934;DHT22;2482;49.154;8.254;2022-07-29T12:34:08;30.50;93.70
4934;DHT22;2482;49.154;8.254;2022-07-29T12:36:36;30.80;93.20
4934;DHT22;2482;49.154;8.254;2022-07-29T12:39:04;31.20;92.00
4934;DHT22;2482;49.154;8.254;2022-07-29T12:41:31;31.10;91.60
4934;DHT22;2482;49.154;8.254;2022-07-29T12:44:03;31.00;91.70
4934;DHT22;2482;49.154;8.254;2022-07-29T12:46:31;31.00;92.00
4934;DHT22;2482;49.154;8.254;2022-07-29T12:49:00;30.80;92.50
4934;DHT22;2482;49.154;8.254;2022-07-29T12:51:34;30.90;92.70
4934;DHT22;2482;49.154;8.254;2022-07-29T12:54:13;31.00;93.10
4934;DHT22;2482;49.154;8.254;2022-07-29T12:56:44;30.90;92.20
4934;DHT22;2482;49.154;8.254;2022-07-29T12:59:20;30.50;92.60
4934;DHT22;2482;49.154;8.254;2022-07-29T13:01:51;30.20;92.70
4934;DHT22;2482;49.154;8.254;2022-07-29T13:04:29;30.00;92.80
4934;DHT22;2482;49.154;8.254;2022-07-29T13:07:03;30.00;92.90
4934;DHT22;2482;49.154;8.254;2022-07-29T13:09:43;29.90;93.50
4934;DHT22;2482;49.154;8.254;2022-07-29T13:12:13;30.00;93.20
4934;DHT22;2482;49.154;8.254;2022-07-29T13:17:18;29.60;92.40
4934;DHT22;2482;49.154;8.254;2022-07-29T13:20:07;29.20;92.60
4934;DHT22;2482;49.154;8.254;2022-07-29T13:22:41;29.40;93.00
4934;DHT22;2482;49.154;8.254;2022-07-29T13:25:09;29.40;93.20
4934;DHT22;2482;49.154;8.254;2022-07-29T13:27:38;29.60;93.20
4934;DHT22;2482;49.154;8.254;2022-07-29T13:30:09;29.30;92.50
4934;DHT22;2482;49.154;8.254;2022-07-29T13:32:42;29.20;92.50
4934;DHT22;2482;49.154;8.254;2022-07-29T13:35:09;29.20;93.00
4934;DHT22;2482;49.154;8.254;2022-07-29T13:37:36;29.20;92.30
4934;DHT22;2482;49.154;8.254;2022-07-29T13:40:08;29.10;93.10
4934;DHT22;2482;49.154;8.254;2022-07-29T13:42:35;29.00;92.20
4934;DHT22;2482;49.154;8.254;2022-07-29T13:45:04;29.00;92.70
4934;DHT22;2482;49.154;8.254;2022-07-29T13:47:32;29.10;92.60
4934;DHT22;2482;49.154;8.254;2022-07-29T13:50:01;29.10;92.70
4934;DHT22;2482;49.154;8.254;2022-07-29T13:52:32;29.30;91.90
4934;DHT22;2482;49.154;8.254;2022-07-29T13:55:01;29.30;92.40
4934;DHT22;2482;49.154;8.254;2022-07-29T13:57:29;29.10;91.90
4934;DHT22;2482;49.154;8.254;2022-07-29T13:59:57;29.00;91.80
4934;DHT22;2482;49.154;8.254;2022-07-29T14:02:24;29.00;92.10
4934;DHT22;2482;49.154;8.254;2022-07-29T14:04:53;29.00;91.30
4934;DHT22;2482;49.154;8.254;2022-07-29T14:07:21;28.70;91.20
4934;DHT22;2482;49.154;8.254;2022-07-29T14:09:49;28.60;91.40
4934;DHT22;2482;49.154;8.254;2022-07-29T14:12:17;28.70;91.60
4934;DHT22;2482;49.154;8.254;2022-07-29T14:14:50;28.80;90.90
4934;DHT22;2482;49.154;8.254;2022-07-29T14:17:17;28.90;90.40
4934;DHT22;2482;49.154;8.254;2022-07-29T14:19:44;29.00;91.20
4934;DHT22;2482;49.154;8.254;2022-07-29T14:22:11;29.00;90.50
4934;DHT22;2482;49.154;8.254;2022-07-29T14:24:39;29.20;90.70
4934;DHT22;2482;49.154;8.254;2022-07-29T14:27:08;29.40;90.00
4934;DHT22;2482;49.154;8.254;2022-07-29T14:29:35;29.30;89.80
4934;DHT22;2482;49.154;8.254;2022-07-29T14:32:08;29.50;89.80
4934;DHT22;2482;49.154;8.254;2022-07-29T14:34:41;29.40;87.70
4934;DHT22;2482;49.154;8.254;2022-07-29T14:37:07;29.60;89.00
4934;DHT22;2482;49.154;8.254;2022-07-29T14:39:41;29.60;88.80
4934;DHT22;2482;49.154;8.254;2022-07-29T14:42:10;29.50;87.80
4934;DHT22;2482;49.154;8.254;2022-07-29T14:44:39;29.40;87.60
4934;DHT22;2482;49.154;8.254;2022-07-29T14:47:08;29.70;87.80
4934;DHT22;2482;49.154;8.254;2022-07-29T14:49:35;29.70;86.30
4934;DHT22;2482;49.154;8.254;2022-07-29T14:52:03;29.50;87.00
4934;DHT22;2482;49.154;8.254;2022-07-29T14:54:30;29.50;87.30
4934;DHT22;2482;49.154;8.254;2022-07-29T14:57:11;29.70;86.60
4934;DHT22;2482;49.154;8.254;2022-07-29T15:01:19;29.80;86.80
4934;DHT22;2482;49.154;8.254;2022-07-29T15:05:24;29.70;85.30
4934;DHT22;2482;49.154;8.254;2022-07-29T15:09:47;29.50;85.10
4934;DHT22;2482;49.154;8.254;2022-07-29T15:13:01;29.60;85.00
4934;DHT22;2482;49.154;8.254;2022-07-29T15:15:32;29.90;83.30
4934;DHT22;2482;49.154;8.254;2022-07-29T15:18:00;29.80;84.10
4934;DHT22;2482;49.154;8.254;2022-07-29T15:20:29;29.70;83.30
4934;DHT22;2482;49.154;8.254;2022-07-29T15:23:33;30.00;84.00
4934;DHT22;2482;49.154;8.254;2022-07-29T15:28:15;30.10;81.70
4934;DHT22;2482;49.154;8.254;2022-07-29T15:31:43;30.10;82.30
4934;DHT22;2482;49.154;8.254;2022-07-29T15:35:04;30.10;81.40
4934;DHT22;2482;49.154;8.254;2022-07-29T15:38:08;29.90;80.80
4934;DHT22;2482;49.154;8.254;2022-07-29T15:41:06;29.80;81.50
4934;DHT22;2482;49.154;8.254;2022-07-29T15:43:38;30.00;81.50
4934;DHT22;2482;49.154;8.254;2022-07-29T15:46:47;30.20;80.80
4934;DHT22;2482;49.154;8.254;2022-07-29T15:49:45;30.10;79.60
4934;DHT22;2482;49.154;8.254;2022-07-29T15:53:38;30.10;81.90
4934;DHT22;2482;49.154;8.254;2022-07-29T15:57:44;30.20;80.10
4934;DHT22;2482;49.154;8.254;2022-07-29T16:00:36;30.50;80.80
4934;DHT22;2482;49.154;8.254;2022-07-29T16:03:46;30.80;79.60
4934;DHT22;2482;49.154;8.254;2022-07-29T16:07:53;30.70;78.60
4934;DHT22;2482;49.154;8.254;2022-07-29T16:10:23;30.90;79.80
4934;DHT22;2482;49.154;8.254;2022-07-29T16:12:50;30.60;76.80
4934;DHT22;2482;49.154;8.254;2022-07-29T16:15:19;30.70;78.70
4934;DHT22;2482;49.154;8.254;2022-07-29T16:17:46;30.80;78.40
4934;DHT22;2482;49.154;8.254;2022-07-29T16:20:17;30.80;77.40
4934;DHT22;2482;49.154;8.254;2022-07-29T16:22:44;30.90;76.70
4934;DHT22;2482;49.154;8.254;2022-07-29T16:25:12;31.00;77.10
4934;DHT22;2482;49.154;8.254;2022-07-29T16:27:40;31.20;76.80
4934;DHT22;2482;49.154;8.254;2022-07-29T16:30:08;31.20;74.70
4934;DHT22;2482;49.154;8.254;2022-07-29T16:32:35;31.10;75.80
4934;DHT22;2482;49.154;8.254;2022-07-29T16:35:02;31.00;74.00
4934;DHT22;2482;49.154;8.254;2022-07-29T16:37:31;30.80;67.70
4934;DHT22;2482;49.154;8.254;2022-07-29T16:40:11;30.50;68.00
4934;DHT22;2482;49.154;8.254;2022-07-29T16:42:46;30.40;66.50
4934;DHT22;2482;49.154;8.254;2022-07-29T16:45:15;30.60;67.60
4934;DHT22;2482;49.154;8.254;2022-07-29T16:47:47;30.60;68.90
4934;DHT22;2482;49.154;8.254;2022-07-29T16:50:14;30.50;67.90
4934;DHT22;2482;49.154;8.254;2022-07-29T16:52:51;30.50;66.30
4934;DHT22;2482;49.154;8.254;2022-07-29T16:55:28;30.60;67.70
4934;DHT22;2482;49.154;8.254;2022-07-29T16:58:06;30.70;66.00
4934;DHT22;2482;49.154;8.254;2022-07-29T17:00:34;30.70;65.90
4934;DHT22;2482;49.154;8.254;2022-07-29T17:03:05;30.80;67.50
4934;DHT22;2482;49.154;8.254;2022-07-29T17:05:35;30.90;67.10
4934;DHT22;2482;49.154;8.254;2022-07-29T17:08:24;30.90;67.10
4934;DHT22;2482;49.154;8.254;2022-07-29T17:10:51;30.80;67.50
4934;DHT22;2482;49.154;8.254;2022-07-29T17:13:19;30.80;67.50
4934;DHT22;2482;49.154;8.254;2022-07-29T17:15:46;30.90;67.80
4934;DHT22;2482;49.154;8.254;2022-07-29T17:18:13;30.80;66.90
4934;DHT22;2482;49.154;8.254;2022-07-29T17:20:41;31.00;67.90
4934;DHT22;2482;49.154;8.254;2022-07-29T17:23:09;31.30;67.60
4934;DHT22;2482;49.154;8.254;2022-07-29T17:25:36;31.40;67.60
4934;DHT22;2482;49.154;8.254;2022-07-29T17:28:03;31.50;69.10
4934;DHT22;2482;49.154;8.254;2022-07-29T17:30:30;31.60;68.60
4934;DHT22;2482;49.154;8.254;2022-07-29T17:32:58;31.70;67.60
4934;DHT22;2482;49.154;8.254;2022-07-29T17:35:25;31.60;67.80
4934;DHT22;2482;49.154;8.254;2022-07-29T17:38:11;31.50;68.00
4934;DHT22;2482;49.154;8.254;2022-07-29T17:40:37;31.30;68.20
4934;DHT22;2482;49.154;8.254;2022-07-29T17:43:04;31.10;68.10
4934;DHT22;2482;49.154;8.254;2022-07-29T17:45:34;31.00;69.30
4934;DHT22;2482;49.154;8.254;2022-07-29T17:48:16;31.00;68.60
4934;DHT22;2482;49.154;8.254;2022-07-29T17:50:43;30.80;69.50
4934;DHT22;2482;49.154;8.254;2022-07-29T17:53:11;30.80;70.40